createdAt,value
2022-12-15T00:01:03.051Z,92890.25
2022-12-15T00:06:25.191Z,92903.47
2022-12-15T00:11:46.971Z,92907.25
2022-12-15T00:17:09.854Z,92921.53
2022-12-15T00:22:31.715Z,92924.41
2022-12-15T00:27:53.323Z,92942.41
2022-12-15T00:33:15.666Z,92926.19
2022-12-15T00:38:37.017Z,92935.59
2022-12-15T00:43:40.673Z,92911.63
2022-12-15T00:48:44.562Z,92923.78
2022-12-15T00:54:07.251Z,92928.13
2022-12-15T00:59:30.117Z,92939.91
2022-12-15T01:04:51.708Z,92937.56
2022-12-15T01:10:13.753Z,92931.94
2022-12-15T01:15:35.276Z,92927.56
2022-12-15T01:20:38.388Z,92956.75
2022-12-15T01:25:42.602Z,92948.75
2022-12-15T01:30:46.379Z,92944.66
2022-12-15T01:35:58.357Z,92939.03
2022-12-15T01:41:07.575Z,92933.72
2022-12-15T01:46:14.200Z,92939.31
2022-12-15T01:51:29.175Z,92929.31
2022-12-15T01:56:38.403Z,92912.84
2022-12-15T02:01:44.237Z,92918.66
2022-12-15T02:06:53.910Z,92905.84
2022-12-15T02:12:15.099Z,92910.31
2022-12-15T02:17:39.810Z,92918.44
2022-12-15T02:23:07.887Z,92910.34
2022-12-15T02:28:18.732Z,92913.63
2022-12-15T02:33:30.719Z,92917.56
2022-12-15T02:38:37.625Z,92930.28
2022-12-15T02:43:43.317Z,92926.59
2022-12-15T02:49:02.799Z,92923.06
2022-12-15T02:54:06.491Z,92928.69
2022-12-15T02:59:31.262Z,92929.72
2022-12-15T03:04:34.496Z,92915.25
2022-12-15T03:09:38.125Z,92913.16
2022-12-15T03:14:41.161Z,92931.00
2022-12-15T03:19:44.208Z,92931.13
2022-12-15T03:24:47.349Z,92939.03
2022-12-15T03:29:50.839Z,92932.28
2022-12-15T03:34:53.832Z,92931.78
2022-12-15T03:39:57.892Z,92945.78
2022-12-15T03:45:01.945Z,92951.84
2022-12-15T03:50:06.086Z,92952.50
2022-12-15T03:55:10.314Z,92957.69
2022-12-15T04:00:18.836Z,92963.06
2022-12-15T04:05:25.961Z,92965.94
2022-12-15T04:10:34.769Z,92973.09
2022-12-15T04:15:39.679Z,92961.69
2022-12-15T04:20:43.390Z,92977.22
2022-12-15T04:26:04.787Z,92982.38
2022-12-15T04:31:28.684Z,92995.38
2022-12-15T04:36:51.333Z,93003.94
2022-12-15T04:42:16.413Z,92991.06
2022-12-15T04:47:37.967Z,93004.13
2022-12-15T04:52:59.787Z,93008.47
2022-12-15T04:58:28.301Z,93012.75
2022-12-15T05:03:50.008Z,93025.91
2022-12-15T05:09:12.240Z,93020.47
2022-12-15T05:14:34.157Z,93001.63
2022-12-15T05:19:56.163Z,93031.00
2022-12-15T05:25:17.797Z,93017.41
2022-12-15T05:30:40.119Z,93038.38
2022-12-15T05:35:43.738Z,93060.78
2022-12-15T05:40:46.747Z,93067.59
2022-12-15T05:45:49.780Z,93055.88
2022-12-15T05:50:53.212Z,93067.41
2022-12-15T05:56:02.692Z,93076.78
2022-12-15T06:01:12.582Z,93073.25
2022-12-15T06:06:16.221Z,93067.69
2022-12-15T06:11:21.613Z,93078.78
2022-12-15T06:16:28.293Z,93087.00
2022-12-15T06:21:33.066Z,93092.75
2022-12-15T06:26:38.299Z,93101.72
2022-12-15T06:31:43.397Z,93101.25
2022-12-15T06:36:46.608Z,93105.31
2022-12-15T06:41:49.963Z,93122.25
2022-12-15T06:46:53.213Z,93127.16
2022-12-15T06:51:56.362Z,93112.88
2022-12-15T06:56:59.486Z,93125.78
2022-12-15T07:02:03.045Z,93150.47
2022-12-15T07:07:06.664Z,93163.22
2022-12-15T07:12:12.725Z,93172.00
2022-12-15T07:17:15.858Z,93185.16
2022-12-15T07:22:20.600Z,93193.66
2022-12-15T07:27:23.910Z,93207.25
2022-12-15T07:32:26.961Z,93213.53
2022-12-15T07:37:30.413Z,93195.28
2022-12-15T07:42:33.633Z,93218.91
2022-12-15T07:47:37.368Z,93221.44
2022-12-15T07:52:40.969Z,93223.25
2022-12-15T07:57:44.637Z,93219.06
2022-12-15T08:02:47.826Z,93236.22
2022-12-15T08:07:53.857Z,93242.09
2022-12-15T08:12:57.469Z,93245.41
2022-12-15T08:18:01.256Z,93260.03
2022-12-15T08:23:05.077Z,93248.94
2022-12-15T08:28:08.561Z,93255.72
2022-12-15T08:33:13.098Z,93261.88
2022-12-15T08:38:16.206Z,93267.66
2022-12-15T08:43:19.710Z,93271.38
2022-12-15T08:48:23.321Z,93277.66
2022-12-15T08:53:31.871Z,93282.69
2022-12-15T08:58:35.878Z,93267.09
2022-12-15T09:03:39.743Z,93271.72
2022-12-15T09:08:43.185Z,93275.41
2022-12-15T09:13:46.673Z,93290.06
2022-12-15T09:18:55.356Z,93280.63
2022-12-15T09:24:02.106Z,93281.84
2022-12-15T09:29:05.516Z,93287.16
2022-12-15T09:34:13.410Z,93289.19
2022-12-15T09:39:17.371Z,93272.91
2022-12-15T09:44:23.427Z,93270.56
2022-12-15T09:49:53.951Z,93272.00
2022-12-15T09:54:59.461Z,93268.84
2022-12-15T10:00:12.425Z,93268.84
2022-12-15T10:05:57.708Z,93282.19
2022-12-15T10:11:21.960Z,93268.69
2022-12-15T10:16:55.002Z,93264.50
2022-12-15T10:21:59.364Z,93261.44
2022-12-15T10:27:19.695Z,93255.50
2022-12-15T10:32:43.049Z,93250.81
2022-12-15T10:37:46.615Z,93252.19
2022-12-15T10:42:53.484Z,93242.69
2022-12-15T10:47:59.524Z,93229.47
2022-12-15T10:53:09.358Z,93224.28
2022-12-15T10:58:22.017Z,93225.09
2022-12-15T11:03:28.081Z,93212.88
2022-12-15T11:08:33.183Z,93221.03
2022-12-15T11:13:37.005Z,93208.34
2022-12-15T11:18:54.299Z,93222.78
2022-12-15T11:24:14.354Z,93218.09
2022-12-15T11:29:25.229Z,93222.72
2022-12-15T11:34:40.651Z,93223.66
2022-12-15T11:40:22.160Z,93223.13
2022-12-15T11:45:27.628Z,93220.22
2022-12-15T11:50:57.935Z,93198.00
2022-12-15T11:56:55.474Z,93196.28
2022-12-15T12:02:04.257Z,93200.44
2022-12-15T12:07:14.075Z,93202.44
2022-12-15T12:12:39.468Z,93195.72
2022-12-15T12:17:53.918Z,93199.19
2022-12-15T12:23:05.082Z,93211.13
2022-12-15T12:28:20.286Z,93198.81
2022-12-15T12:33:44.876Z,93207.06
2022-12-15T12:38:56.356Z,93201.78
2022-12-15T12:44:29.929Z,93196.00
2022-12-15T12:49:41.774Z,93176.63
2022-12-15T12:55:00.038Z,93194.66
2022-12-15T13:00:17.186Z,93196.69
2022-12-15T13:05:33.465Z,93193.78
2022-12-15T13:10:42.218Z,93192.91
2022-12-15T13:15:51.468Z,93197.00
2022-12-15T13:20:57.482Z,93194.84
2022-12-15T13:26:11.711Z,93188.47
2022-12-15T13:31:18.272Z,93188.09
2022-12-15T13:36:40.299Z,93190.25
2022-12-15T13:47:29.864Z,93183.09
2022-12-15T13:53:18.463Z,93196.47
2022-12-15T13:58:24.975Z,93203.13
2022-12-15T14:03:28.300Z,93213.78
2022-12-15T14:08:32.346Z,93215.69
2022-12-15T14:13:37.353Z,93212.09
2022-12-15T14:18:44.067Z,93211.66
2022-12-15T14:24:28.472Z,93206.88
2022-12-15T14:29:14.561Z,93209.88
2022-12-15T14:34:29.595Z,93211.78
2022-12-15T14:39:38.419Z,93211.34
2022-12-15T14:44:49.986Z,93213.66
2022-12-15T14:49:57.905Z,93209.00
2022-12-15T14:55:20.641Z,93228.53
2022-12-15T15:00:26.674Z,93227.47
2022-12-15T15:05:33.326Z,93218.75
2022-12-15T15:10:36.565Z,93218.25
2022-12-15T15:15:39.751Z,93221.38
2022-12-15T15:21:03.653Z,93233.25
2022-12-15T15:26:06.905Z,93233.34
2022-12-15T15:31:25.260Z,93244.53
2022-12-15T15:36:33.327Z,93233.66
2022-12-15T15:41:36.708Z,93245.66
2022-12-15T15:46:49.207Z,93233.06
2022-12-15T15:51:52.573Z,93243.56
2022-12-15T15:56:55.665Z,93232.34
2022-12-15T16:02:00.021Z,93253.75
2022-12-15T16:07:04.821Z,93242.31
2022-12-15T16:12:17.346Z,93242.75
2022-12-15T16:17:21.112Z,93248.56
2022-12-15T16:22:25.000Z,93245.03
2022-12-15T16:27:28.107Z,93248.88
2022-12-15T16:32:31.561Z,93262.50
2022-12-15T16:37:39.485Z,93268.50
2022-12-15T16:42:43.650Z,93265.41
2022-12-15T16:47:47.001Z,93279.84
2022-12-15T16:52:53.693Z,93274.50
2022-12-15T16:58:00.593Z,93281.22
2022-12-15T17:03:04.086Z,93280.84
2022-12-15T17:08:16.415Z,93286.34
2022-12-15T17:13:40.580Z,93297.28
2022-12-15T17:18:47.109Z,93292.50
2022-12-15T17:23:53.968Z,93294.84
2022-12-15T17:29:19.849Z,93299.63
2022-12-15T17:34:31.637Z,93286.09
2022-12-15T17:39:36.323Z,93302.31
2022-12-15T17:44:40.396Z,93305.91
2022-12-15T17:49:44.069Z,93305.97
2022-12-15T17:54:47.393Z,93315.13
2022-12-15T17:59:51.174Z,93323.53
2022-12-15T18:04:55.608Z,93312.53
2022-12-15T18:09:59.016Z,93322.00
2022-12-15T18:15:02.699Z,93318.44
2022-12-15T18:20:08.373Z,93320.06
2022-12-15T18:25:28.880Z,93313.09
2022-12-15T18:30:32.309Z,93330.72
2022-12-15T18:35:40.492Z,93329.75
2022-12-15T18:40:48.491Z,93329.78
2022-12-15T18:45:52.995Z,93328.22
2022-12-15T18:50:58.667Z,93334.88
2022-12-15T18:56:06.039Z,93322.78
2022-12-15T19:01:11.138Z,93322.28
2022-12-15T19:06:27.058Z,93315.38
2022-12-15T19:11:33.655Z,93315.78
2022-12-15T19:16:55.355Z,93328.66
2022-12-15T19:22:17.560Z,93323.97
2022-12-15T19:27:23.765Z,93325.16
2022-12-15T19:32:27.171Z,93310.38
2022-12-15T19:37:31.675Z,93328.50
2022-12-15T19:42:37.504Z,93319.44
2022-12-15T19:47:40.702Z,93328.50
2022-12-15T19:52:47.362Z,93328.56
2022-12-15T19:57:50.428Z,93309.22
2022-12-15T20:02:55.907Z,93320.78
2022-12-15T20:08:00.102Z,93312.50
2022-12-15T20:13:03.820Z,93305.06
2022-12-15T20:18:06.985Z,93315.63
2022-12-15T20:23:32.134Z,93316.66
2022-12-15T20:28:35.473Z,93315.88
2022-12-15T20:33:38.874Z,93322.44
2022-12-15T20:38:43.348Z,93310.59
2022-12-15T20:43:47.434Z,93327.59
2022-12-15T20:48:52.394Z,93315.63
2022-12-15T20:53:58.746Z,93337.44
2022-12-15T20:59:02.428Z,93336.50
2022-12-15T21:04:26.282Z,93333.91
2022-12-15T21:09:29.381Z,93337.34
2022-12-15T21:14:32.462Z,93342.00
2022-12-15T21:19:36.093Z,93325.59
2022-12-15T21:24:39.309Z,93344.63
2022-12-15T21:29:47.287Z,93325.69
2022-12-15T21:34:54.078Z,93330.44
2022-12-15T21:39:59.766Z,93322.84
2022-12-15T21:45:13.128Z,93320.75
2022-12-15T21:50:18.909Z,93314.00
2022-12-15T21:55:26.769Z,93320.34
2022-12-15T22:00:29.764Z,93320.47
2022-12-15T22:05:32.912Z,93304.13
2022-12-15T22:10:36.470Z,93300.31
2022-12-15T22:15:40.087Z,93311.47
2022-12-15T22:20:45.887Z,93311.13
2022-12-15T22:25:54.639Z,93298.84
2022-12-15T22:30:58.687Z,93289.78
2022-12-15T22:36:01.894Z,93275.72
2022-12-15T22:41:07.260Z,93269.09
2022-12-15T22:46:13.987Z,93284.19
2022-12-15T22:51:17.818Z,93244.03
2022-12-15T22:56:33.496Z,93278.59
2022-12-15T23:01:36.830Z,93285.09
2022-12-15T23:06:41.393Z,93285.00
2022-12-15T23:11:45.521Z,93278.16
2022-12-15T23:16:49.103Z,93282.84
2022-12-15T23:21:52.618Z,93280.97
2022-12-15T23:26:56.957Z,93289.03
2022-12-15T23:32:00.762Z,93271.16
2022-12-15T23:37:04.296Z,93266.13
2022-12-15T23:42:07.343Z,93267.59
2022-12-15T23:47:11.346Z,93271.22
2022-12-15T23:52:14.452Z,93257.97
2022-12-15T23:57:18.182Z,93268.97
